Time;durP1;ratioP1;P1;durP2;ratioP2;P2;SDS_P1;SDS_P2;PMS_P1;PMS_P2;Temp;Humidity;BMP_temperature;BMP_pressure;BME280_temperature;BME280_humidity;BME280_pressure;Samples;Min_cycle;Max_cycle;Signal;HPM_P1;HPM_P2
2021/12/19 00:01:13;;;;;;;14.48;9.88;;;2.50;99.90;;;;;;5067544;27;20482;-78
2021/12/19 00:09:01;;;;;;;16.42;9.75;;;2.50;99.90;;;;;;5055685;28;20086;-77
2021/12/19 00:11:29;;;;;;;11.32;7.47;;;2.50;99.90;;;;;;5054811;28;20017;-77
2021/12/19 00:13:56;;;;;;;14.23;9.68;;;2.40;99.90;;;;;;5054884;27;20021;-77
2021/12/19 00:16:21;;;;;;;14.05;8.63;;;2.50;99.90;;;;;;5056065;27;20025;-77
2021/12/19 00:18:48;;;;;;;11.77;7.95;;;2.50;99.90;;;;;;5054767;28;20021;-77
2021/12/19 00:21:15;;;;;;;13.55;8.38;;;2.50;99.90;;;;;;5054716;28;20029;-77
2021/12/19 00:23:42;;;;;;;12.23;8.27;;;2.50;99.90;;;;;;5055988;28;20021;-77
2021/12/19 00:26:08;;;;;;;13.60;8.23;;;2.50;99.90;;;;;;5054731;27;20021;-77
2021/12/19 00:28:34;;;;;;;10.52;6.47;;;2.50;99.90;;;;;;5054788;28;20055;-76
2021/12/19 00:31:01;;;;;;;8.95;6.30;;;2.50;99.90;;;;;;5055858;28;20375;-77
2021/12/19 00:33:26;;;;;;;9.07;7.28;;;2.50;99.90;;;;;;5054677;27;20061;-77
2021/12/19 00:35:52;;;;;;;10.18;7.47;;;2.50;99.90;;;;;;5055881;28;20482;-77
2021/12/19 00:38:18;;;;;;;11.68;8.10;;;2.50;99.90;;;;;;5054420;28;20021;-77
2021/12/19 00:40:44;;;;;;;10.52;7.85;;;2.50;99.90;;;;;;5041722;28;20410;-77
2021/12/19 00:43:22;;;;;;;11.00;8.20;;;2.50;99.90;;;;;;5045251;28;20104;-77
2021/12/19 00:45:49;;;;;;;9.45;6.85;;;2.60;99.90;;;;;;5054422;28;20115;-78
2021/12/19 00:48:16;;;;;;;8.98;6.95;;;2.60;99.90;;;;;;5037945;27;20109;-78
2021/12/19 00:50:43;;;;;;;9.50;7.05;;;2.60;99.90;;;;;;5077365;27;20124;-77
2021/12/19 00:53:09;;;;;;;11.82;6.22;;;2.60;99.90;;;;;;5056802;27;20052;-77
2021/12/19 00:55:35;;;;;;;13.50;9.00;;;2.60;99.90;;;;;;5046456;28;20066;-77
2021/12/19 00:58:02;;;;;;;8.80;6.82;;;2.60;99.90;;;;;;5035577;28;20028;-77
2021/12/19 01:00:33;;;;;;;9.48;6.80;;;2.70;99.90;;;;;;5032770;28;20037;-78
2021/12/19 01:03:00;;;;;;;8.70;5.95;;;2.70;99.90;;;;;;5034044;27;20022;-77
2021/12/19 01:05:27;;;;;;;8.48;6.97;;;2.60;99.90;;;;;;5032747;28;20025;-77
2021/12/19 01:07:53;;;;;;;8.80;6.57;;;2.70;99.90;;;;;;5032262;28;20044;-77
2021/12/19 01:10:19;;;;;;;6.95;6.10;;;2.60;99.90;;;;;;5029076;28;20030;-77
2021/12/19 01:12:45;;;;;;;9.65;5.75;;;2.60;99.90;;;;;;5029527;28;20024;-77
2021/12/19 01:15:13;;;;;;;6.45;5.35;;;2.60;99.90;;;;;;5030538;28;20022;-77
2021/12/19 01:17:39;;;;;;;7.70;4.90;;;2.60;99.90;;;;;;5030964;28;20034;-77
2021/12/19 01:20:10;;;;;;;6.53;4.72;;;2.60;99.90;;;;;;5030789;28;20026;-77
2021/12/19 01:22:36;;;;;;;5.78;4.72;;;2.70;99.90;;;;;;5032008;27;20052;-77
2021/12/19 01:25:02;;;;;;;8.80;4.90;;;2.70;99.90;;;;;;5030713;28;20505;-77
2021/12/19 01:27:28;;;;;;;7.25;5.30;;;2.70;99.90;;;;;;5032073;28;20142;-77
2021/12/19 01:29:53;;;;;;;7.22;5.22;;;2.70;99.90;;;;;;5039893;28;20045;-77
2021/12/19 01:32:19;;;;;;;7.55;5.10;;;2.70;99.90;;;;;;5051906;28;20028;-77
2021/12/19 01:34:45;;;;;;;5.88;3.92;;;2.70;99.90;;;;;;5050587;28;20029;-77
2021/12/19 01:37:10;;;;;;;5.28;3.85;;;2.70;99.90;;;;;;5050520;28;20043;-77
2021/12/19 01:39:36;;;;;;;6.90;4.40;;;2.70;99.90;;;;;;5051770;28;20025;-77
2021/12/19 01:42:02;;;;;;;7.25;4.30;;;2.70;99.90;;;;;;5051567;28;20033;-77
2021/12/19 01:44:27;;;;;;;6.13;4.13;;;2.70;99.90;;;;;;5049852;28;20093;-77
2021/12/19 01:46:53;;;;;;;4.80;4.05;;;2.70;99.90;;;;;;5050216;28;20021;-78
2021/12/19 01:49:21;;;;;;;7.10;3.53;;;2.70;99.90;;;;;;5049937;28;20074;-77
2021/12/19 01:51:47;;;;;;;4.57;3.55;;;2.70;99.90;;;;;;5050046;28;20033;-77
2021/12/19 01:54:13;;;;;;;3.53;3.22;;;2.80;99.90;;;;;;5049819;28;20017;-77
2021/12/19 01:56:40;;;;;;;4.47;3.67;;;2.80;99.90;;;;;;5051374;28;20393;-77
2021/12/19 01:59:10;;;;;;;5.78;3.55;;;2.80;99.90;;;;;;5049839;28;20036;-77
2021/12/19 02:01:47;;;;;;;4.05;3.20;;;2.80;99.90;;;;;;5051024;28;20037;-77
2021/12/19 02:04:14;;;;;;;3.47;2.80;;;2.80;99.90;;;;;;5051080;28;20029;-77
2021/12/19 02:06:40;;;;;;;3.50;3.20;;;2.80;99.90;;;;;;5049751;28;20179;-77
2021/12/19 02:09:07;;;;;;;3.30;3.03;;;2.80;99.90;;;;;;5051036;28;20132;-77
2021/12/19 02:11:34;;;;;;;4.28;2.85;;;2.80;99.90;;;;;;5051031;28;20017;-77
2021/12/19 02:14:01;;;;;;;3.55;3.25;;;2.90;99.90;;;;;;5049696;28;20065;-78
2021/12/19 02:16:28;;;;;;;6.72;3.45;;;2.90;99.90;;;;;;5049542;28;20505;-77
2021/12/19 02:18:53;;;;;;;5.10;3.67;;;2.90;99.90;;;;;;5049482;28;20029;-77
2021/12/19 02:21:19;;;;;;;6.20;3.95;;;2.90;99.90;;;;;;5049106;28;20033;-77
2021/12/19 02:23:45;;;;;;;5.50;3.00;;;2.90;99.90;;;;;;5050893;28;20025;-77
2021/12/19 02:26:13;;;;;;;7.05;4.63;;;2.90;99.90;;;;;;5049650;28;20501;-77
2021/12/19 02:28:39;;;;;;;6.72;4.40;;;2.90;99.90;;;;;;5049305;28;20104;-77
2021/12/19 02:31:04;;;;;;;5.07;4.00;;;2.90;99.90;;;;;;5049656;28;20063;-77
2021/12/19 02:33:35;;;;;;;5.38;4.22;;;2.90;99.90;;;;;;5050909;28;20104;-76
2021/12/19 02:36:18;;;;;;;5.53;4.32;;;3.00;99.90;;;;;;5049731;28;20031;-77
2021/12/19 02:49:23;;;;;;;5.68;4.05;;;3.00;99.90;;;;;;5050765;28;20040;-77
2021/12/19 02:51:51;;;;;;;5.13;3.58;;;3.10;99.90;;;;;;5049039;28;20029;-78
2021/12/19 02:54:17;;;;;;;4.82;3.75;;;3.00;99.90;;;;;;5050132;28;20104;-77
2021/12/19 02:56:42;;;;;;;6.20;4.03;;;3.00;99.90;;;;;;5050272;28;20522;-77
2021/12/19 02:59:08;;;;;;;5.43;4.13;;;3.10;99.90;;;;;;5050267;28;20025;-77
2021/12/19 03:01:34;;;;;;;5.78;4.05;;;3.10;99.90;;;;;;5050374;28;20120;-78
2021/12/19 03:03:59;;;;;;;4.97;3.40;;;3.10;99.90;;;;;;5048952;28;20033;-77
2021/12/19 03:06:25;;;;;;;5.15;3.85;;;3.10;99.90;;;;;;5048781;28;20459;-78
2021/12/19 03:08:52;;;;;;;4.50;3.47;;;3.10;99.90;;;;;;5049937;28;20025;-77
2021/12/19 03:19:22;;;;;;;4.68;3.50;;;3.10;99.90;;;;;;5050098;28;20055;-77
2021/12/19 03:21:48;;;;;;;4.43;3.35;;;3.00;99.90;;;;;;5049926;28;20572;-77
2021/12/19 03:24:14;;;;;;;4.72;3.55;;;3.00;99.90;;;;;;5048783;28;20116;-76
2021/12/19 03:26:39;;;;;;;3.65;3.13;;;3.00;99.90;;;;;;5049813;28;20041;-77
2021/12/19 03:29:05;;;;;;;4.15;3.22;;;3.00;99.90;;;;;;5049855;28;20085;-77
2021/12/19 03:31:31;;;;;;;5.15;3.35;;;3.00;99.90;;;;;;5049168;28;20104;-77
2021/12/19 03:33:57;;;;;;;4.03;3.13;;;3.00;99.90;;;;;;5049809;28;20066;-77
2021/12/19 03:36:23;;;;;;;5.47;4.20;;;3.00;99.90;;;;;;5049907;28;20028;-77
2021/12/19 03:38:52;;;;;;;5.22;3.22;;;3.10;99.90;;;;;;5048599;28;20100;-77
2021/12/19 03:41:21;;;;;;;8.27;3.88;;;3.10;99.90;;;;;;5049542;28;20033;-77
2021/12/19 03:43:48;;;;;;;5.95;3.78;;;3.10;99.90;;;;;;5048490;28;20068;-77
2021/12/19 03:46:14;;;;;;;5.43;3.20;;;3.10;99.90;;;;;;5048570;28;20130;-77
2021/12/19 03:48:40;;;;;;;6.72;3.88;;;3.10;99.90;;;;;;5048197;28;20022;-77
2021/12/19 03:51:07;;;;;;;5.18;4.43;;;3.10;99.90;;;;;;5049771;28;20036;-78
2021/12/19 03:53:33;;;;;;;4.78;3.50;;;3.00;99.90;;;;;;5049710;28;20032;-77
2021/12/19 03:55:58;;;;;;;5.85;3.53;;;3.10;99.90;;;;;;5049293;28;20025;-77
2021/12/19 03:58:24;;;;;;;5.65;4.28;;;3.10;99.90;;;;;;5048282;28;20017;-78
2021/12/19 04:00:52;;;;;;;4.90;3.47;;;3.10;99.90;;;;;;5049620;28;20032;-77
2021/12/19 04:03:20;;;;;;;5.32;3.35;;;3.10;99.90;;;;;;5049577;28;20052;-78
2021/12/19 04:05:47;;;;;;;13.02;8.95;;;3.10;99.90;;;;;;5048333;28;20029;-77
2021/12/19 04:08:13;;;;;;;14.73;8.80;;;3.10;99.90;;;;;;5048272;28;20021;-77
2021/12/19 04:10:38;;;;;;;15.05;9.43;;;3.00;99.90;;;;;;5049409;28;20029;-77
2021/12/19 04:13:04;;;;;;;15.05;9.65;;;3.00;99.90;;;;;;5049485;28;20052;-76
2021/12/19 04:15:30;;;;;;;15.88;9.65;;;3.00;99.90;;;;;;5048049;28;20051;-77
2021/12/19 04:17:56;;;;;;;15.90;10.45;;;3.00;99.90;;;;;;5047743;28;20025;-78
2021/12/19 04:20:21;;;;;;;16.17;10.32;;;3.00;99.90;;;;;;5049144;28;20075;-78
2021/12/19 04:22:49;;;;;;;19.75;11.93;;;2.90;99.90;;;;;;5047917;28;20051;-78
2021/12/19 04:25:15;;;;;;;22.00;12.38;;;2.90;99.90;;;;;;5047503;27;20565;-78
2021/12/19 04:27:42;;;;;;;18.98;12.18;;;2.80;99.90;;;;;;5048017;27;20024;-77
2021/12/19 04:30:11;;;;;;;15.10;12.23;;;2.80;99.90;;;;;;5049137;28;20458;-76
2021/12/19 04:32:42;;;;;;;19.02;12.30;;;2.80;99.90;;;;;;5049279;28;20032;-76
2021/12/19 04:35:11;;;;;;;21.98;12.45;;;2.80;99.90;;;;;;5049023;28;20081;-77
2021/12/19 04:40:29;;;;;;;26.98;16.10;;;2.80;99.90;;;;;;5041518;28;20065;-77
2021/12/19 04:56:28;;;;;;;28.38;17.48;;;2.70;99.90;;;;;;5032496;28;20098;-78
2021/12/19 05:04:25;;;;;;;29.40;16.88;;;2.70;99.90;;;;;;5052336;28;20474;-77
2021/12/19 05:14:03;;;;;;;27.88;15.93;;;2.70;99.90;;;;;;5052123;28;20025;-78
2021/12/19 05:15:05;;;;;;;33.95;17.73;;;2.70;99.90;;;;;;5052317;28;20037;-78
2021/12/19 05:17:32;;;;;;;30.63;18.02;;;2.70;99.90;;;;;;5050714;28;20509;-78
2021/12/19 05:22:31;;;;;;;35.55;19.90;;;2.70;99.90;;;;;;5043985;28;20045;-77
2021/12/19 05:25:07;;;;;;;38.47;21.33;;;2.70;99.90;;;;;;5032097;28;20490;-77
2021/12/19 05:27:33;;;;;;;43.40;22.75;;;2.70;99.90;;;;;;5031878;28;20102;-77
2021/12/19 05:29:58;;;;;;;38.63;19.80;;;2.70;99.90;;;;;;5030495;28;20471;-77
2021/12/19 05:32:24;;;;;;;38.80;21.98;;;2.70;99.90;;;;;;5031562;28;20021;-78
2021/12/19 05:34:49;;;;;;;44.13;22.17;;;2.70;99.90;;;;;;5030368;28;20025;-77
2021/12/19 05:45:27;;;;;;;42.38;21.85;;;2.70;99.90;;;;;;5031800;28;20394;-77
2021/12/19 05:47:53;;;;;;;40.78;21.73;;;2.70;99.90;;;;;;5031689;28;20029;-77
2021/12/19 05:50:22;;;;;;;38.30;19.80;;;2.80;99.90;;;;;;5030073;28;20049;-77
2021/12/19 05:52:48;;;;;;;40.05;20.90;;;2.70;99.90;;;;;;5030203;28;20017;-77
2021/12/19 05:55:15;;;;;;;38.63;20.80;;;2.70;99.90;;;;;;5030602;28;20049;-77
2021/12/19 05:57:42;;;;;;;39.75;21.65;;;2.80;99.90;;;;;;5030119;28;20026;-76
2021/12/19 06:00:12;;;;;;;39.50;20.33;;;2.70;99.90;;;;;;5029806;28;20082;-77
2021/12/19 06:02:39;;;;;;;39.25;19.73;;;2.80;99.90;;;;;;5031438;28;20018;-77
2021/12/19 06:05:05;;;;;;;33.45;17.48;;;2.80;99.90;;;;;;5030024;28;20479;-77
2021/12/19 06:07:31;;;;;;;26.73;15.95;;;2.80;99.90;;;;;;5030063;28;20021;-77
2021/12/19 06:09:57;;;;;;;32.75;17.48;;;2.80;99.90;;;;;;5031118;28;20534;-77
2021/12/19 06:12:23;;;;;;;33.05;19.10;;;2.80;99.90;;;;;;5031265;28;20108;-77
2021/12/19 06:14:49;;;;;;;29.58;15.82;;;2.80;99.90;;;;;;5029817;28;20032;-77
2021/12/19 06:17:15;;;;;;;29.50;15.75;;;2.90;99.90;;;;;;5029700;28;20452;-77
2021/12/19 06:19:40;;;;;;;32.30;16.85;;;2.90;99.90;;;;;;5031037;28;20036;-77
2021/12/19 06:22:07;;;;;;;34.03;18.15;;;2.90;99.90;;;;;;5029543;28;20033;-77
2021/12/19 06:24:33;;;;;;;35.92;18.80;;;2.90;99.90;;;;;;5029549;28;20028;-77
2021/12/19 06:27:00;;;;;;;37.67;20.58;;;2.90;99.90;;;;;;5030720;28;20586;-77
2021/12/19 06:29:31;;;;;;;33.70;18.50;;;2.90;99.90;;;;;;5029384;28;20026;-77
2021/12/19 06:31:57;;;;;;;30.20;16.42;;;2.90;99.90;;;;;;5030896;28;20026;-77
2021/12/19 06:34:23;;;;;;;30.83;16.35;;;3.00;99.90;;;;;;5029507;28;20021;-77
2021/12/19 06:36:51;;;;;;;34.88;18.23;;;3.00;99.90;;;;;;5029734;28;20025;-78
2021/12/19 06:39:17;;;;;;;35.05;17.08;;;3.00;99.90;;;;;;5066648;27;20052;-77
2021/12/19 06:41:43;;;;;;;28.40;15.27;;;3.00;99.90;;;;;;5125031;27;20078;-77
2021/12/19 06:44:08;;;;;;;29.13;14.85;;;3.00;99.90;;;;;;5154048;27;20026;-77
2021/12/19 06:46:34;;;;;;;30.98;15.75;;;3.00;99.90;;;;;;5153918;27;20063;-77
2021/12/19 06:48:59;;;;;;;22.05;13.65;;;3.00;99.90;;;;;;5155429;27;20030;-76
2021/12/19 06:51:25;;;;;;;26.05;13.27;;;3.10;99.90;;;;;;5153831;27;20099;-77
2021/12/19 06:53:51;;;;;;;26.85;13.38;;;3.10;99.90;;;;;;5154063;27;20022;-77
2021/12/19 06:56:16;;;;;;;24.02;12.43;;;3.10;99.90;;;;;;5153631;27;20046;-77
2021/12/19 06:58:42;;;;;;;23.20;11.95;;;3.20;99.90;;;;;;5153748;27;20022;-76
2021/12/19 07:01:08;;;;;;;23.33;13.68;;;3.20;99.90;;;;;;5155312;27;20118;-77
2021/12/19 07:03:34;;;;;;;26.67;12.93;;;3.20;99.90;;;;;;5154001;27;20113;-77
2021/12/19 07:05:59;;;;;;;24.38;13.48;;;3.20;99.90;;;;;;5154254;27;20025;-77
2021/12/19 07:08:25;;;;;;;22.73;11.65;;;3.20;99.90;;;;;;5155074;27;20022;-78
2021/12/19 07:10:51;;;;;;;22.52;10.63;;;3.30;99.90;;;;;;5153810;27;20432;-77
2021/12/19 07:13:20;;;;;;;20.08;11.18;;;3.30;99.90;;;;;;5153811;27;20066;-77
2021/12/19 07:15:48;;;;;;;25.58;12.18;;;3.30;99.90;;;;;;5153675;27;20022;-77
2021/12/19 07:18:13;;;;;;;16.55;9.82;;;3.30;99.90;;;;;;5154820;27;20026;-77
2021/12/19 07:20:42;;;;;;;22.25;10.63;;;3.40;99.90;;;;;;5153537;27;20022;-77
2021/12/19 07:23:10;;;;;;;18.48;10.60;;;3.40;99.90;;;;;;5154906;27;20027;-77
2021/12/19 07:25:36;;;;;;;15.73;8.20;;;3.40;99.90;;;;;;5154860;27;20386;-78
2021/12/19 07:28:01;;;;;;;13.85;8.43;;;3.40;99.90;;;;;;5153557;27;20109;-78
2021/12/19 07:30:27;;;;;;;16.65;8.93;;;3.50;99.90;;;;;;5120393;27;20036;-77
2021/12/19 07:32:54;;;;;;;18.27;8.90;;;3.50;99.90;;;;;;5030181;28;20029;-78
2021/12/19 07:35:21;;;;;;;11.90;8.00;;;3.60;99.90;;;;;;5042974;28;20025;-77
2021/12/19 07:37:49;;;;;;;12.88;6.70;;;3.60;99.90;;;;;;5049993;28;20056;-78
2021/12/19 07:40:17;;;;;;;12.20;6.47;;;3.60;99.90;;;;;;5036181;28;20025;-78
2021/12/19 07:42:44;;;;;;;15.07;6.78;;;3.70;99.90;;;;;;5028772;28;20026;-78
2021/12/19 07:45:11;;;;;;;12.40;6.50;;;3.70;99.90;;;;;;5029699;28;20025;-78
2021/12/19 07:47:40;;;;;;;11.75;7.07;;;3.70;99.90;;;;;;5069824;27;20034;-77
2021/12/19 07:50:07;;;;;;;10.95;6.90;;;3.60;99.90;;;;;;5110526;27;20445;-77
2021/12/19 07:52:33;;;;;;;12.68;7.00;;;3.60;99.90;;;;;;5048444;28;20025;-78
2021/12/19 07:54:59;;;;;;;17.38;7.55;;;3.60;99.90;;;;;;5076049;27;20024;-77
2021/12/19 07:57:25;;;;;;;12.45;8.20;;;3.60;99.90;;;;;;5103705;27;20156;-77
2021/12/19 07:59:51;;;;;;;36.63;22.73;;;3.60;99.90;;;;;;5086309;27;20103;-77
2021/12/19 08:02:17;;;;;;;11.20;7.28;;;3.50;99.90;;;;;;5105944;27;20036;-77
2021/12/19 08:04:43;;;;;;;13.27;7.40;;;3.50;99.90;;;;;;5129703;27;20023;-77
2021/12/19 08:07:11;;;;;;;10.60;7.68;;;3.50;99.90;;;;;;5153060;27;20392;-77
2021/12/19 08:09:57;;;;;;;10.13;6.13;;;3.50;99.90;;;;;;5121582;27;20033;-77
2021/12/19 08:12:23;;;;;;;13.18;8.25;;;3.50;99.90;;;;;;5141235;27;20030;-77
2021/12/19 08:14:49;;;;;;;12.48;6.95;;;3.50;99.90;;;;;;5046156;28;20026;-76
2021/12/19 08:17:14;;;;;;;18.02;9.18;;;3.50;99.90;;;;;;5048140;28;20029;-77
2021/12/19 08:19:40;;;;;;;13.05;8.55;;;3.50;99.90;;;;;;5052701;28;20017;-77
2021/12/19 08:22:05;;;;;;;17.77;10.20;;;3.50;99.90;;;;;;5051514;28;20516;-77
2021/12/19 08:24:31;;;;;;;9.68;6.53;;;3.40;99.90;;;;;;5049980;28;20392;-76
2021/12/19 08:26:57;;;;;;;14.25;7.32;;;3.40;99.90;;;;;;5049390;28;20063;-77
2021/12/19 08:29:22;;;;;;;10.65;6.18;;;3.40;99.90;;;;;;5050714;28;20031;-77
2021/12/19 08:31:48;;;;;;;13.30;7.63;;;3.40;99.90;;;;;;5126402;27;20058;-77
2021/12/19 08:34:14;;;;;;;10.35;6.15;;;3.40;99.90;;;;;;5156178;27;20027;-77
2021/12/19 08:36:39;;;;;;;10.15;6.90;;;3.40;99.90;;;;;;5156561;27;20022;-78
2021/12/19 08:39:05;;;;;;;14.95;5.95;;;3.40;99.90;;;;;;5107041;27;20021;-77
2021/12/19 08:41:31;;;;;;;8.80;6.18;;;3.40;99.90;;;;;;5047532;27;20037;-77
2021/12/19 08:43:57;;;;;;;11.48;6.88;;;3.40;99.90;;;;;;5074388;27;20107;-76
2021/12/19 08:46:23;;;;;;;8.80;5.95;;;3.40;99.90;;;;;;5155465;27;20449;-77
2021/12/19 08:48:49;;;;;;;10.30;5.97;;;3.40;99.90;;;;;;5155741;27;20026;-77
2021/12/19 08:51:14;;;;;;;13.25;6.90;;;3.40;99.90;;;;;;5156459;27;20101;-77
2021/12/19 08:53:40;;;;;;;6.50;4.95;;;3.40;99.90;;;;;;5156958;27;20027;-78
2021/12/19 08:56:06;;;;;;;13.25;5.90;;;3.40;99.90;;;;;;5155223;27;20106;-77
2021/12/19 08:58:31;;;;;;;8.90;5.38;;;3.40;99.90;;;;;;5155801;27;20606;-78
2021/12/19 09:01:01;;;;;;;9.75;5.60;;;3.40;99.90;;;;;;5140325;27;20035;-76
2021/12/19 09:03:31;;;;;;;7.70;5.53;;;3.40;99.90;;;;;;5120580;27;20029;-77
2021/12/19 09:05:58;;;;;;;6.25;5.55;;;3.50;99.90;;;;;;5077284;27;20054;-77
2021/12/19 09:08:24;;;;;;;9.55;6.57;;;3.50;99.90;;;;;;5155778;27;20027;-77
2021/12/19 09:10:50;;;;;;;7.75;5.45;;;3.50;99.90;;;;;;5073351;27;20081;-77
2021/12/19 09:13:16;;;;;;;9.07;6.72;;;3.50;99.90;;;;;;5049928;28;20051;-78
2021/12/19 09:15:41;;;;;;;10.07;4.65;;;3.50;99.90;;;;;;5100703;27;20037;-77
2021/12/19 09:18:07;;;;;;;6.20;5.43;;;3.40;99.90;;;;;;5131354;27;20035;-76
2021/12/19 09:20:33;;;;;;;8.77;5.70;;;3.50;99.90;;;;;;5082648;27;20037;-76
2021/12/19 09:22:58;;;;;;;8.70;6.22;;;3.50;99.90;;;;;;5063067;27;20024;-77
2021/12/19 09:25:24;;;;;;;16.02;12.93;;;3.50;99.90;;;;;;5060166;27;20049;-76
2021/12/19 09:27:49;;;;;;;13.00;10.70;;;3.50;99.90;;;;;;5107049;27;20046;-76
2021/12/19 09:30:16;;;;;;;8.20;6.15;;;3.50;99.90;;;;;;5113730;27;20125;-76
2021/12/19 09:32:41;;;;;;;21.40;15.32;;;3.40;99.90;;;;;;5106067;27;21062;-76
2021/12/19 09:35:07;;;;;;;8.52;6.50;;;3.50;99.90;;;;;;5122408;27;20433;-78
2021/12/19 09:37:35;;;;;;;11.10;7.80;;;3.50;99.90;;;;;;5155071;27;20414;-76
2021/12/19 09:40:06;;;;;;;10.05;7.57;;;3.50;99.90;;;;;;5080438;27;20055;-76
2021/12/19 09:42:34;;;;;;;11.38;8.27;;;3.50;99.90;;;;;;5051021;28;20112;-76
2021/12/19 09:45:05;;;;;;;9.07;6.70;;;3.50;99.90;;;;;;5050200;28;20061;-76
2021/12/19 09:47:30;;;;;;;14.05;7.78;;;3.50;99.90;;;;;;5051043;28;20073;-77
2021/12/19 09:49:57;;;;;;;14.13;7.13;;;3.50;99.90;;;;;;5049200;27;20045;-76
2021/12/19 09:52:23;;;;;;;11.45;7.68;;;3.50;99.90;;;;;;5049289;27;20068;-76
2021/12/19 09:54:49;;;;;;;12.07;6.70;;;3.50;99.90;;;;;;5054596;27;20062;-76
2021/12/19 09:57:15;;;;;;;12.27;8.60;;;3.50;99.90;;;;;;5053114;27;20064;-77
2021/12/19 09:59:40;;;;;;;10.13;6.22;;;3.60;99.90;;;;;;5047693;27;20041;-76
2021/12/19 10:02:06;;;;;;;10.15;6.03;;;3.60;99.90;;;;;;5044410;27;20041;-79
2021/12/19 10:04:43;;;;;;;21.50;12.85;;;3.60;99.90;;;;;;5046430;27;20028;-76
2021/12/19 10:07:19;;;;;;;15.35;7.55;;;3.60;99.90;;;;;;5083540;27;20028;-76
2021/12/19 10:09:56;;;;;;;13.20;6.28;;;3.60;99.90;;;;;;5058569;27;20021;-76
2021/12/19 10:15:09;;;;;;;11.43;7.10;;;3.60;99.90;;;;;;5065307;27;20049;-76
2021/12/19 10:17:36;;;;;;;14.85;7.85;;;3.60;99.90;;;;;;5047681;27;20501;-76
2021/12/19 10:20:03;;;;;;;8.85;5.10;;;3.70;99.90;;;;;;5070632;27;20011;-76
2021/12/19 10:22:32;;;;;;;7.15;5.38;;;3.70;99.90;;;;;;5102101;27;20478;-76
2021/12/19 10:25:19;;;;;;;6.30;4.80;;;3.70;99.90;;;;;;5050389;27;20055;-76
2021/12/19 10:27:48;;;;;;;8.30;5.43;;;3.60;99.90;;;;;;5052789;27;20017;-76
2021/12/19 10:30:22;;;;;;;8.23;5.50;;;3.60;99.90;;;;;;5062023;27;20026;-76
2021/12/19 10:32:59;;;;;;;8.60;5.10;;;3.60;99.90;;;;;;5061999;27;20060;-77
2021/12/19 10:35:35;;;;;;;10.35;6.50;;;3.60;99.90;;;;;;5049291;27;20412;-76
2021/12/19 10:38:02;;;;;;;9.15;5.40;;;3.60;99.90;;;;;;5043552;28;20052;-76
2021/12/19 10:40:29;;;;;;;9.32;5.78;;;3.60;99.90;;;;;;5037209;28;20073;-76
2021/12/19 10:43:00;;;;;;;10.32;7.65;;;3.60;99.90;;;;;;5044392;28;20022;-77
2021/12/19 10:45:42;;;;;;;9.00;5.75;;;3.60;99.90;;;;;;5050653;27;20082;-75
2021/12/19 10:48:22;;;;;;;9.57;4.90;;;3.50;99.90;;;;;;5039924;28;20566;-76
2021/12/19 10:50:49;;;;;;;5.30;3.65;;;3.40;99.90;;;;;;5041174;28;20109;-76
2021/12/19 10:53:16;;;;;;;9.73;5.43;;;3.40;99.90;;;;;;5036077;28;20021;-77
2021/12/19 10:55:47;;;;;;;8.95;5.70;;;3.30;99.90;;;;;;5041551;28;20069;-77
2021/12/19 10:58:44;;;;;;;41.08;17.65;;;3.30;99.90;;;;;;5042491;27;20036;-75
2021/12/19 11:01:14;;;;;;;18.77;8.00;;;3.40;99.90;;;;;;5012281;28;20137;-76
2021/12/19 11:03:45;;;;;;;21.60;8.77;;;3.30;99.90;;;;;;5033150;28;20017;-75
2021/12/19 11:06:23;;;;;;;98.78;58.25;;;3.40;99.90;;;;;;5031241;28;20462;-75
2021/12/19 11:08:51;;;;;;;60.63;35.30;;;3.40;99.90;;;;;;5029478;28;20101;-76
2021/12/19 11:11:34;;;;;;;96.07;60.45;;;3.40;99.90;;;;;;5036232;28;20017;-76
2021/12/19 11:14:00;;;;;;;148.73;86.47;;;3.40;99.90;;;;;;5039143;28;20539;-76
2021/12/19 11:16:26;;;;;;;158.90;79.47;;;3.50;99.90;;;;;;5049076;28;20028;-77
2021/12/19 11:18:52;;;;;;;307.38;150.43;;;3.50;99.90;;;;;;5095451;27;20074;-75
2021/12/19 11:21:19;;;;;;;451.55;195.35;;;3.50;99.90;;;;;;5056878;27;20033;-76
2021/12/19 11:23:45;;;;;;;530.22;249.65;;;3.50;99.90;;;;;;5055361;27;20040;-75
2021/12/19 11:26:12;;;;;;;501.15;233.80;;;3.60;99.90;;;;;;5085312;27;20029;-76
2021/12/19 11:28:38;;;;;;;147.70;60.40;;;3.60;99.90;;;;;;5074757;27;20380;-76
2021/12/19 11:31:05;;;;;;;664.42;339.55;;;3.60;99.90;;;;;;5100228;27;20056;-76
2021/12/19 11:33:42;;;;;;;443.65;195.10;;;3.60;99.90;;;;;;5080612;27;20022;-76
2021/12/19 11:36:08;;;;;;;387.52;152.95;;;3.60;99.90;;;;;;5077247;27;20019;-76
2021/12/19 11:38:36;;;;;;;338.10;140.45;;;3.60;99.90;;;;;;5076918;27;20050;-76
2021/12/19 11:41:09;;;;;;;484.95;231.05;;;3.60;99.90;;;;;;5105878;27;20025;-77
2021/12/19 11:43:39;;;;;;;;;;;3.60;99.90;;;;;;5080115;27;20080;-76
2021/12/19 11:46:17;;;;;;;187.13;74.80;;;3.60;99.90;;;;;;5050586;27;20259;-75
2021/12/19 11:48:44;;;;;;;154.30;73.75;;;3.60;99.90;;;;;;5028997;28;20540;-76
2021/12/19 11:51:18;;;;;;;81.00;41.72;;;3.60;99.90;;;;;;5037548;27;20021;-76
2021/12/19 11:53:45;;;;;;;108.00;44.35;;;3.70;99.90;;;;;;5033693;28;20022;-76
2021/12/19 11:56:14;;;;;;;107.05;40.08;;;3.70;99.90;;;;;;5029084;28;20017;-75
2021/12/19 11:58:50;;;;;;;51.95;20.33;;;3.70;99.90;;;;;;5031745;28;20125;-76
2021/12/19 12:01:22;;;;;;;17.92;9.30;;;3.70;99.90;;;;;;5033619;28;20029;-75
2021/12/19 12:03:52;;;;;;;24.95;10.68;;;3.70;99.90;;;;;;5032476;28;20025;-76
2021/12/19 12:06:17;;;;;;;62.47;33.38;;;3.70;99.90;;;;;;5033912;28;20037;-76
2021/12/19 12:09:06;;;;;;;37.55;17.98;;;3.70;99.90;;;;;;5038083;28;20022;-78
2021/12/19 12:11:33;;;;;;;185.98;127.03;;;3.70;99.90;;;;;;5032994;28;20052;-75
2021/12/19 12:14:19;;;;;;;76.70;41.53;;;3.80;99.90;;;;;;5053754;27;20365;-77
2021/12/19 12:17:18;;;;;;;22.90;11.43;;;3.80;99.90;;;;;;5030625;28;20026;-78
2021/12/19 12:19:51;;;;;;;58.08;25.63;;;3.80;99.90;;;;;;5029489;28;20029;-78
2021/12/19 12:25:11;;;;;;;21.50;12.93;;;3.70;99.90;;;;;;5028089;28;19916;-77
2021/12/19 12:27:42;;;;;;;98.72;43.15;;;3.80;99.90;;;;;;5032256;28;20174;-77
2021/12/19 12:30:19;;;;;;;25.45;11.63;;;3.70;99.90;;;;;;5026726;28;20486;-76
2021/12/19 12:32:45;;;;;;;46.95;20.77;;;3.70;99.90;;;;;;5033413;27;20438;-76
2021/12/19 12:35:13;;;;;;;70.88;29.88;;;3.80;99.90;;;;;;5045691;28;20112;-76
2021/12/19 12:37:40;;;;;;;46.22;20.83;;;3.80;99.90;;;;;;5046759;28;20108;-77
2021/12/19 12:40:31;;;;;;;69.20;29.13;;;3.80;99.90;;;;;;5045278;28;20028;-76
2021/12/19 12:43:09;;;;;;;33.90;16.55;;;3.70;99.90;;;;;;5044917;27;20735;-76
2021/12/19 12:46:07;;;;;;;39.85;17.02;;;3.80;99.90;;;;;;5040669;28;20021;-76
2021/12/19 12:48:40;;;;;;;32.13;19.27;;;3.70;99.90;;;;;;5009936;28;20413;-76
2021/12/19 12:51:12;;;;;;;41.85;18.92;;;3.70;99.90;;;;;;5024525;27;20036;-77
2021/12/19 12:53:47;;;;;;;21.50;10.15;;;3.70;99.90;;;;;;5041299;28;20546;-76
2021/12/19 12:56:19;;;;;;;36.50;16.65;;;3.70;99.90;;;;;;5041348;28;20040;-76
2021/12/19 12:58:52;;;;;;;24.05;9.90;;;3.70;99.90;;;;;;5054735;28;20025;-77
2021/12/19 13:01:38;;;;;;;18.15;9.70;;;3.60;99.90;;;;;;5042305;28;20640;-76
2021/12/19 13:04:07;;;;;;;22.75;12.00;;;3.60;99.90;;;;;;5047968;28;20054;-77
2021/12/19 13:06:52;;;;;;;15.77;8.15;;;3.50;99.90;;;;;;5045223;28;20022;-77
2021/12/19 13:09:41;;;;;;;27.58;13.48;;;3.50;99.90;;;;;;5047992;28;20166;-77
2021/12/19 13:12:18;;;;;;;9.68;5.63;;;3.40;99.90;;;;;;5047027;28;20032;-77
2021/12/19 13:14:51;;;;;;;17.58;9.43;;;3.40;99.90;;;;;;5051436;27;20029;-77
2021/12/19 13:17:18;;;;;;;23.05;12.93;;;3.40;99.90;;;;;;5040704;27;20030;-77
2021/12/19 13:19:50;;;;;;;7.13;5.05;;;3.40;99.90;;;;;;5039188;27;20505;-77
2021/12/19 13:22:21;;;;;;;;;;;3.30;99.90;;;;;;5038291;27;20565;-77
2021/12/19 13:24:49;;;;;;;12.77;7.07;;;3.30;99.90;;;;;;5065949;27;19981;-78
2021/12/19 13:27:30;;;;;;;18.48;7.72;;;3.30;99.90;;;;;;5071126;27;20105;-78
2021/12/19 13:30:18;;;;;;;29.33;14.60;;;3.30;99.90;;;;;;5068668;27;21533;-78
2021/12/19 13:33:18;;;;;;;22.35;11.05;;;3.20;99.90;;;;;;5047939;27;20035;-78
2021/12/19 13:35:50;;;;;;;24.83;12.23;;;3.20;99.90;;;;;;5036990;27;20109;-78
2021/12/19 13:38:23;;;;;;;20.25;9.65;;;3.20;99.90;;;;;;5038058;27;20009;-78
2021/12/19 13:41:03;;;;;;;14.60;8.32;;;3.20;99.90;;;;;;5044487;27;20037;-78
2021/12/19 13:43:32;;;;;;;18.30;10.30;;;3.10;99.90;;;;;;5038226;27;20116;-78
2021/12/19 13:46:14;;;;;;;32.92;18.80;;;3.10;99.90;;;;;;5038272;27;20562;-78
2021/12/19 13:48:47;;;;;;;12.10;8.40;;;3.10;99.90;;;;;;5037713;27;20017;-78
2021/12/19 13:51:14;;;;;;;;;;;3.10;99.90;;;;;;5043605;27;20021;-78
2021/12/19 13:53:44;;;;;;;10.55;6.10;;;3.10;99.90;;;;;;5049679;27;19908;-78
2021/12/19 13:56:13;;;;;;;9.40;4.90;;;3.10;99.90;;;;;;5047139;27;20021;-78
2021/12/19 13:58:43;;;;;;;11.27;6.32;;;3.10;99.90;;;;;;5049765;27;20378;-78
2021/12/19 14:01:16;;;;;;;6.60;4.05;;;3.10;99.90;;;;;;5071610;27;20027;-78